sensor_id;sensor_type;location;lat;lon;timestamp;pressure;altitude;pressure_sealevel;temperature;humidity
10618;BME280;5356;43.526;26.534;2022-12-10T00:00:41;98424.63;;;11.16;100.00
10618;BME280;5356;43.526;26.534;2022-12-10T00:03:06;98431.94;;;11.09;100.00
10618;BME280;5356;43.526;26.534;2022-12-10T00:05:35;98431.06;;;11.03;100.00
10618;BME280;5356;43.526;26.534;2022-12-10T00:08:00;98426.69;;;10.97;100.00
10618;BME280;5356;43.526;26.534;2022-12-10T00:10:26;98420.78;;;10.95;100.00
10618;BME280;5356;43.526;26.534;2022-12-10T00:12:51;98405.06;;;10.93;100.00
10618;BME280;5356;43.526;26.534;2022-12-10T00:15:17;98419.19;;;10.94;100.00
10618;BME280;5356;43.526;26.534;2022-12-10T00:17:42;98410.19;;;10.83;100.00
10618;BME280;5356;43.526;26.534;2022-12-10T00:20:09;98414.31;;;10.74;100.00
10618;BME280;5356;43.526;26.534;2022-12-10T00:22:34;98417.88;;;10.79;100.00
10618;BME280;5356;43.526;26.534;2022-12-10T00:25:00;98418.44;;;10.82;100.00
10618;BME280;5356;43.526;26.534;2022-12-10T00:27:26;98417.63;;;10.81;100.00
10618;BME280;5356;43.526;26.534;2022-12-10T00:29:51;98426.97;;;10.84;100.00
10618;BME280;5356;43.526;26.534;2022-12-10T00:32:16;98430.94;;;10.81;100.00
10618;BME280;5356;43.526;26.534;2022-12-10T00:34:42;98421.66;;;10.84;100.00
10618;BME280;5356;43.526;26.534;2022-12-10T00:37:07;98426.50;;;10.87;100.00
10618;BME280;5356;43.526;26.534;2022-12-10T00:39:33;98426.38;;;10.93;100.00
10618;BME280;5356;43.526;26.534;2022-12-10T00:41:58;98427.75;;;10.96;100.00
10618;BME280;5356;43.526;26.534;2022-12-10T00:44:24;98426.47;;;10.98;100.00
10618;BME280;5356;43.526;26.534;2022-12-10T00:46:49;98422.16;;;10.97;100.00
10618;BME280;5356;43.526;26.534;2022-12-10T00:49:15;98425.41;;;10.99;100.00
10618;BME280;5356;43.526;26.534;2022-12-10T00:51:40;98425.88;;;10.96;100.00
10618;BME280;5356;43.526;26.534;2022-12-10T00:54:06;98420.25;;;10.93;100.00
10618;BME280;5356;43.526;26.534;2022-12-10T00:56:33;98421.59;;;10.95;100.00
10618;BME280;5356;43.526;26.534;2022-12-10T00:59:00;98421.53;;;10.90;100.00
10618;BME280;5356;43.526;26.534;2022-12-10T01:03:55;98412.78;;;10.95;100.00
10618;BME280;5356;43.526;26.534;2022-12-10T01:06:24;98404.56;;;10.96;100.00
10618;BME280;5356;43.526;26.534;2022-12-10T01:08:52;98405.84;;;10.94;100.00
10618;BME280;5356;43.526;26.534;2022-12-10T01:11:20;98402.69;;;10.97;100.00
10618;BME280;5356;43.526;26.534;2022-12-10T01:13:47;98398.84;;;11.05;100.00
10618;BME280;5356;43.526;26.534;2022-12-10T01:16:15;98401.81;;;11.08;100.00
10618;BME280;5356;43.526;26.534;2022-12-10T01:18:41;98391.38;;;11.07;100.00
10618;BME280;5356;43.526;26.534;2022-12-10T01:21:10;98385.59;;;11.10;100.00
10618;BME280;5356;43.526;26.534;2022-12-10T01:23:38;98382.50;;;11.18;100.00
10618;BME280;5356;43.526;26.534;2022-12-10T01:26:06;98395.03;;;11.17;100.00
10618;BME280;5356;43.526;26.534;2022-12-10T01:28:33;98388.59;;;11.13;100.00
10618;BME280;5356;43.526;26.534;2022-12-10T01:31:05;98385.59;;;11.10;100.00
10618;BME280;5356;43.526;26.534;2022-12-10T01:33:31;98384.06;;;11.14;100.00
10618;BME280;5356;43.526;26.534;2022-12-10T01:36:01;98380.81;;;11.12;100.00
10618;BME280;5356;43.526;26.534;2022-12-10T01:38:27;98376.06;;;11.14;100.00
10618;BME280;5356;43.526;26.534;2022-12-10T01:40:52;98367.00;;;11.15;100.00
10618;BME280;5356;43.526;26.534;2022-12-10T01:43:17;98363.84;;;11.01;100.00
10618;BME280;5356;43.526;26.534;2022-12-10T01:45:43;98370.91;;;10.90;100.00
10618;BME280;5356;43.526;26.534;2022-12-10T01:48:08;98369.53;;;10.88;100.00
10618;BME280;5356;43.526;26.534;2022-12-10T01:50:34;98368.16;;;10.85;100.00
10618;BME280;5356;43.526;26.534;2022-12-10T01:52:59;98363.31;;;10.82;100.00
10618;BME280;5356;43.526;26.534;2022-12-10T01:58:06;98354.56;;;10.70;100.00
10618;BME280;5356;43.526;26.534;2022-12-10T02:00:34;98353.13;;;10.62;100.00
10618;BME280;5356;43.526;26.534;2022-12-10T02:03:10;98348.00;;;10.61;100.00
10618;BME280;5356;43.526;26.534;2022-12-10T02:05:44;98351.97;;;10.58;100.00
10618;BME280;5356;43.526;26.534;2022-12-10T02:09:04;98346.41;;;10.60;100.00
10618;BME280;5356;43.526;26.534;2022-12-10T02:14:25;98347.03;;;10.67;100.00
10618;BME280;5356;43.526;26.534;2022-12-10T02:16:59;98350.84;;;10.71;100.00
10618;BME280;5356;43.526;26.534;2022-12-10T02:22:10;98341.22;;;10.70;100.00
10618;BME280;5356;43.526;26.534;2022-12-10T02:24:37;98342.06;;;10.70;100.00
10618;BME280;5356;43.526;26.534;2022-12-10T02:30:11;98343.91;;;10.70;100.00
10618;BME280;5356;43.526;26.534;2022-12-10T02:32:38;98333.72;;;10.67;100.00
10618;BME280;5356;43.526;26.534;2022-12-10T02:35:11;98327.84;;;10.65;100.00
10618;BME280;5356;43.526;26.534;2022-12-10T02:38:29;98330.75;;;10.63;100.00
10618;BME280;5356;43.526;26.534;2022-12-10T02:40:33;98341.09;;;10.60;100.00
10618;BME280;5356;43.526;26.534;2022-12-10T02:43:01;98342.47;;;10.62;100.00
10618;BME280;5356;43.526;26.534;2022-12-10T02:45:28;98341.22;;;10.70;100.00
10618;BME280;5356;43.526;26.534;2022-12-10T02:47:57;98341.41;;;10.63;100.00
10618;BME280;5356;43.526;26.534;2022-12-10T02:50:24;98350.28;;;10.69;100.00
10618;BME280;5356;43.526;26.534;2022-12-10T02:52:50;98351.88;;;10.70;100.00
10618;BME280;5356;43.526;26.534;2022-12-10T02:55:17;98349.66;;;10.62;100.00
10618;BME280;5356;43.526;26.534;2022-12-10T03:00:33;98346.81;;;10.68;100.00
10618;BME280;5356;43.526;26.534;2022-12-10T03:08:22;98356.81;;;10.78;100.00
10618;BME280;5356;43.526;26.534;2022-12-10T03:13:32;98354.41;;;10.76;100.00
10618;BME280;5356;43.526;26.534;2022-12-10T03:16:02;98356.66;;;10.68;100.00
10618;BME280;5356;43.526;26.534;2022-12-10T03:18:30;98356.66;;;10.68;100.00
10618;BME280;5356;43.526;26.534;2022-12-10T03:21:02;98343.75;;;10.60;100.00
10618;BME280;5356;43.526;26.534;2022-12-10T03:23:29;98334.59;;;10.55;100.00
10618;BME280;5356;43.526;26.534;2022-12-10T03:25:58;98342.59;;;10.55;100.00
10618;BME280;5356;43.526;26.534;2022-12-10T03:28:25;98346.69;;;10.46;100.00
10618;BME280;5356;43.526;26.534;2022-12-10T03:30:51;98333.78;;;10.38;100.00
10618;BME280;5356;43.526;26.534;2022-12-10T03:33:18;98325.16;;;10.31;100.00
10618;BME280;5356;43.526;26.534;2022-12-10T03:35:45;98340.19;;;10.25;100.00
10618;BME280;5356;43.526;26.534;2022-12-10T03:38:11;98328.03;;;10.29;100.00
10618;BME280;5356;43.526;26.534;2022-12-10T03:40:37;98325.00;;;10.26;100.00
10618;BME280;5356;43.526;26.534;2022-12-10T03:43:02;98338.22;;;10.21;100.00
10618;BME280;5356;43.526;26.534;2022-12-10T03:45:28;98326.78;;;10.20;100.00
10618;BME280;5356;43.526;26.534;2022-12-10T03:47:53;98323.63;;;10.23;100.00
10618;BME280;5356;43.526;26.534;2022-12-10T03:50:19;98333.38;;;10.18;100.00
10618;BME280;5356;43.526;26.534;2022-12-10T03:52:44;98334.88;;;10.25;100.00
10618;BME280;5356;43.526;26.534;2022-12-10T03:55:10;98329.41;;;10.32;100.00
10618;BME280;5356;43.526;26.534;2022-12-10T03:57:35;98333.13;;;10.31;100.00
10618;BME280;5356;43.526;26.534;2022-12-10T04:00:03;98328.22;;;10.11;100.00
10618;BME280;5356;43.526;26.534;2022-12-10T04:02:29;98326.94;;;10.14;100.00
10618;BME280;5356;43.526;26.534;2022-12-10T04:04:54;98337.75;;;10.24;100.00
10618;BME280;5356;43.526;26.534;2022-12-10T04:07:20;98328.84;;;10.18;100.00
10618;BME280;5356;43.526;26.534;2022-12-10T04:09:45;98334.28;;;10.23;100.00
10618;BME280;5356;43.526;26.534;2022-12-10T04:12:11;98323.84;;;10.22;100.00
10618;BME280;5356;43.526;26.534;2022-12-10T04:14:36;98326.31;;;10.23;100.00
10618;BME280;5356;43.526;26.534;2022-12-10T04:17:20;98332.41;;;10.24;100.00
10618;BME280;5356;43.526;26.534;2022-12-10T04:19:45;98329.66;;;10.30;100.00
10618;BME280;5356;43.526;26.534;2022-12-10T04:22:11;98329.91;;;10.17;100.00
10618;BME280;5356;43.526;26.534;2022-12-10T04:24:55;98318.59;;;10.10;100.00
10618;BME280;5356;43.526;26.534;2022-12-10T04:27:36;98324.28;;;10.14;100.00
10618;BME280;5356;43.526;26.534;2022-12-10T04:30:04;98323.84;;;10.22;100.00
10618;BME280;5356;43.526;26.534;2022-12-10T04:32:30;98337.06;;;10.28;100.00
10618;BME280;5356;43.526;26.534;2022-12-10T04:34:56;98322.47;;;10.31;100.00
10618;BME280;5356;43.526;26.534;2022-12-10T04:37:22;98330.56;;;10.36;100.00
10618;BME280;5356;43.526;26.534;2022-12-10T04:39:49;98340.72;;;10.39;100.00
10618;BME280;5356;43.526;26.534;2022-12-10T04:42:15;98333.13;;;10.31;100.00
10618;BME280;5356;43.526;26.534;2022-12-10T04:44:41;98324.78;;;10.27;100.00
10618;BME280;5356;43.526;26.534;2022-12-10T04:47:07;98323.50;;;10.30;100.00
10618;BME280;5356;43.526;26.534;2022-12-10T04:49:33;98318.75;;;10.32;100.00
10618;BME280;5356;43.526;26.534;2022-12-10T04:51:59;98323.69;;;10.40;100.00
10618;BME280;5356;43.526;26.534;2022-12-10T04:54:25;98324.03;;;10.44;100.00
10618;BME280;5356;43.526;26.534;2022-12-10T04:56:50;98314.84;;;10.51;100.00
10618;BME280;5356;43.526;26.534;2022-12-10T04:59:16;98312.75;;;10.53;100.00
10618;BME280;5356;43.526;26.534;2022-12-10T05:01:42;98310.63;;;10.55;100.00
10618;BME280;5356;43.526;26.534;2022-12-10T05:04:09;98312.56;;;10.43;100.00
10618;BME280;5356;43.526;26.534;2022-12-10T05:06:35;98303.06;;;10.47;100.00
10618;BME280;5356;43.526;26.534;2022-12-10T05:09:02;98310.47;;;10.45;100.00
10618;BME280;5356;43.526;26.534;2022-12-10T05:11:30;98302.41;;;10.57;100.00
10618;BME280;5356;43.526;26.534;2022-12-10T05:13:56;98300.94;;;10.49;100.00
10618;BME280;5356;43.526;26.534;2022-12-10T05:16:24;98313.56;;;10.54;100.00
10618;BME280;5356;43.526;26.534;2022-12-10T05:18:50;98315.41;;;10.53;100.00
10618;BME280;5356;43.526;26.534;2022-12-10T05:21:18;98304.28;;;10.56;100.00
10618;BME280;5356;43.526;26.534;2022-12-10T05:23:47;98306.94;;;10.56;100.00
10618;BME280;5356;43.526;26.534;2022-12-10T05:26:16;98310.72;;;10.61;100.00
10618;BME280;5356;43.526;26.534;2022-12-10T05:28:44;98318.88;;;10.54;100.00
10618;BME280;5356;43.526;26.534;2022-12-10T05:31:20;98323.63;;;10.52;100.00
10618;BME280;5356;43.526;26.534;2022-12-10T05:33:46;98325.59;;;10.56;100.00
10618;BME280;5356;43.526;26.534;2022-12-10T05:36:15;98317.59;;;10.56;100.00
10618;BME280;5356;43.526;26.534;2022-12-10T05:38:41;98320.41;;;10.67;100.00
10618;BME280;5356;43.526;26.534;2022-12-10T05:41:19;98319.38;;;10.68;100.00
10618;BME280;5356;43.526;26.534;2022-12-10T05:43:46;98317.13;;;10.60;100.00
10618;BME280;5356;43.526;26.534;2022-12-10T05:46:15;98325.75;;;10.67;100.00
10618;BME280;5356;43.526;26.534;2022-12-10T05:48:41;98319.38;;;10.68;100.00
10618;BME280;5356;43.526;26.534;2022-12-10T05:51:09;98323.56;;;10.64;100.00
10618;BME280;5356;43.526;26.534;2022-12-10T05:53:35;98328.66;;;10.65;100.00
10618;BME280;5356;43.526;26.534;2022-12-10T05:56:06;98330.13;;;10.73;100.00
10618;BME280;5356;43.526;26.534;2022-12-10T05:58:33;98334.47;;;10.79;100.00
10618;BME280;5356;43.526;26.534;2022-12-10T06:00:58;98326.00;;;10.82;100.00
10618;BME280;5356;43.526;26.534;2022-12-10T06:03:25;98329.28;;;10.89;100.00
10618;BME280;5356;43.526;26.534;2022-12-10T06:05:51;98330.94;;;10.90;100.00
10618;BME280;5356;43.526;26.534;2022-12-10T06:08:17;98332.03;;;10.94;100.00
10618;BME280;5356;43.526;26.534;2022-12-10T06:10:42;98347.81;;;10.96;100.00
10618;BME280;5356;43.526;26.534;2022-12-10T06:13:07;98336.66;;;10.99;100.00
10618;BME280;5356;43.526;26.534;2022-12-10T06:15:33;98336.25;;;10.90;100.00
10618;BME280;5356;43.526;26.534;2022-12-10T06:17:59;98338.44;;;10.93;100.00
10618;BME280;5356;43.526;26.534;2022-12-10T06:20:25;98332.44;;;10.86;100.00
10618;BME280;5356;43.526;26.534;2022-12-10T06:22:51;98330.44;;;10.76;100.00
10618;BME280;5356;43.526;26.534;2022-12-10T06:25:18;98318.97;;;10.76;100.00
10618;BME280;5356;43.526;26.534;2022-12-10T06:27:44;98313.16;;;10.79;100.00
10618;BME280;5356;43.526;26.534;2022-12-10T06:30:10;98322.75;;;10.80;100.00
10618;BME280;5356;43.526;26.534;2022-12-10T06:32:35;98305.00;;;10.86;100.00
10618;BME280;5356;43.526;26.534;2022-12-10T06:35:01;98314.06;;;10.85;100.00
10618;BME280;5356;43.526;26.534;2022-12-10T06:37:27;98321.31;;;10.89;100.00
10618;BME280;5356;43.526;26.534;2022-12-10T06:39:53;98320.81;;;10.92;100.00
10618;BME280;5356;43.526;26.534;2022-12-10T06:42:19;98315.44;;;10.87;100.00
10618;BME280;5356;43.526;26.534;2022-12-10T06:44:45;98318.50;;;10.96;100.00
10618;BME280;5356;43.526;26.534;2022-12-10T06:47:11;98330.25;;;11.00;100.00
10618;BME280;5356;43.526;26.534;2022-12-10T06:49:36;98321.38;;;11.11;100.00
10618;BME280;5356;43.526;26.534;2022-12-10T06:52:02;98321.44;;;11.16;100.00
10618;BME280;5356;43.526;26.534;2022-12-10T06:54:28;98326.53;;;11.18;100.00
10618;BME280;5356;43.526;26.534;2022-12-10T06:56:54;98329.34;;;11.28;100.00
10618;BME280;5356;43.526;26.534;2022-12-10T06:59:19;98333.47;;;11.36;100.00
10618;BME280;5356;43.526;26.534;2022-12-10T07:01:46;98328.00;;;11.48;100.00
10618;BME280;5356;43.526;26.534;2022-12-10T07:04:11;98345.09;;;11.46;100.00
10618;BME280;5356;43.526;26.534;2022-12-10T07:06:36;98336.09;;;11.53;100.00
10618;BME280;5356;43.526;26.534;2022-12-10T07:09:02;98331.00;;;11.51;100.00
10618;BME280;5356;43.526;26.534;2022-12-10T07:11:28;98321.13;;;11.52;100.00
10618;BME280;5356;43.526;26.534;2022-12-10T07:13:56;98320.09;;;11.53;100.00
10618;BME280;5356;43.526;26.534;2022-12-10T07:16:30;98317.78;;;11.61;100.00
10618;BME280;5356;43.526;26.534;2022-12-10T07:18:58;98317.59;;;11.68;100.00
10618;BME280;5356;43.526;26.534;2022-12-10T07:21:33;98308.78;;;11.67;100.00
10618;BME280;5356;43.526;26.534;2022-12-10T07:24:05;98303.59;;;11.78;100.00
10618;BME280;5356;43.526;26.534;2022-12-10T07:26:33;98299.69;;;11.85;100.00
10618;BME280;5356;43.526;26.534;2022-12-10T07:29:00;98309.22;;;11.81;100.00
10618;BME280;5356;43.526;26.534;2022-12-10T07:31:27;98300.16;;;11.82;100.00
10618;BME280;5356;43.526;26.534;2022-12-10T07:33:54;98298.66;;;11.86;100.00
10618;BME280;5356;43.526;26.534;2022-12-10T07:36:21;98299.75;;;11.90;100.00
10618;BME280;5356;43.526;26.534;2022-12-10T07:38:48;98306.75;;;11.97;100.00
10618;BME280;5356;43.526;26.534;2022-12-10T07:41:13;98291.41;;;12.09;100.00
10618;BME280;5356;43.526;26.534;2022-12-10T07:43:41;98296.78;;;12.14;100.00
10618;BME280;5356;43.526;26.534;2022-12-10T07:46:30;98285.13;;;12.20;100.00
10618;BME280;5356;43.526;26.534;2022-12-10T07:48:59;98285.72;;;12.27;100.00
10618;BME280;5356;43.526;26.534;2022-12-10T07:51:24;98282.94;;;12.44;100.00
10618;BME280;5356;43.526;26.534;2022-12-10T07:53:54;98290.44;;;12.47;100.00
10618;BME280;5356;43.526;26.534;2022-12-10T07:56:20;98280.34;;;12.54;100.00
10618;BME280;5356;43.526;26.534;2022-12-10T07:58:46;98275.06;;;12.65;100.00
10618;BME280;5356;43.526;26.534;2022-12-10T08:01:17;98286.66;;;12.75;100.00
10618;BME280;5356;43.526;26.534;2022-12-10T08:03:44;98295.22;;;12.77;100.00
10618;BME280;5356;43.526;26.534;2022-12-10T08:06:12;98281.91;;;12.83;100.00
10618;BME280;5356;43.526;26.534;2022-12-10T08:08:38;98280.38;;;12.92;100.00
10618;BME280;5356;43.526;26.534;2022-12-10T08:11:05;98274.53;;;13.00;100.00
10618;BME280;5356;43.526;26.534;2022-12-10T08:13:32;98283.13;;;13.07;100.00
10618;BME280;5356;43.526;26.534;2022-12-10T08:16:06;98286.44;;;13.24;100.00
10618;BME280;5356;43.526;26.534;2022-12-10T08:18:32;98284.09;;;13.28;100.00
10618;BME280;5356;43.526;26.534;2022-12-10T08:20:58;98279.31;;;13.35;100.00
10618;BME280;5356;43.526;26.534;2022-12-10T08:23:24;98273.75;;;13.47;100.00
10618;BME280;5356;43.526;26.534;2022-12-10T08:25:49;98273.78;;;13.57;100.00
10618;BME280;5356;43.526;26.534;2022-12-10T08:28:15;98271.97;;;13.68;100.00
10618;BME280;5356;43.526;26.534;2022-12-10T08:30:48;98267.97;;;13.76;100.00
10618;BME280;5356;43.526;26.534;2022-12-10T08:33:14;98262.13;;;13.89;100.00
10618;BME280;5356;43.526;26.534;2022-12-10T08:35:40;98272.34;;;14.02;100.00
10618;BME280;5356;43.526;26.534;2022-12-10T08:38:05;98264.59;;;14.16;100.00
10618;BME280;5356;43.526;26.534;2022-12-10T08:40:31;98268.38;;;14.30;100.00
10618;BME280;5356;43.526;26.534;2022-12-10T08:42:56;98267.03;;;14.43;100.00
10618;BME280;5356;43.526;26.534;2022-12-10T08:45:22;98258.50;;;14.62;100.00
10618;BME280;5356;43.526;26.534;2022-12-10T08:47:47;98259.00;;;14.79;100.00
10618;BME280;5356;43.526;26.534;2022-12-10T08:50:12;98239.94;;;14.91;100.00
10618;BME280;5356;43.526;26.534;2022-12-10T08:52:39;98252.00;;;15.03;100.00
10618;BME280;5356;43.526;26.534;2022-12-10T08:55:05;98251.97;;;15.19;100.00
10618;BME280;5356;43.526;26.534;2022-12-10T08:57:30;98246.03;;;15.27;100.00
10618;BME280;5356;43.526;26.534;2022-12-10T08:59:56;98245.41;;;15.45;100.00
10618;BME280;5356;43.526;26.534;2022-12-10T09:02:21;98237.63;;;15.54;100.00
10618;BME280;5356;43.526;26.534;2022-12-10T09:04:47;98241.03;;;15.75;100.00
10618;BME280;5356;43.526;26.534;2022-12-10T09:07:14;98234.53;;;15.86;100.00
10618;BME280;5356;43.526;26.534;2022-12-10T09:09:39;98232.28;;;15.99;100.00
10618;BME280;5356;43.526;26.534;2022-12-10T09:12:05;98248.34;;;16.14;100.00
10618;BME280;5356;43.526;26.534;2022-12-10T09:14:30;98235.91;;;16.23;100.00
10618;BME280;5356;43.526;26.534;2022-12-10T09:16:56;98232.63;;;16.31;100.00
10618;BME280;5356;43.526;26.534;2022-12-10T09:19:21;98227.22;;;16.36;100.00
10618;BME280;5356;43.526;26.534;2022-12-10T09:21:47;98219.09;;;16.42;100.00
10618;BME280;5356;43.526;26.534;2022-12-10T09:24:12;98215.72;;;16.60;100.00
10618;BME280;5356;43.526;26.534;2022-12-10T09:26:38;98223.13;;;16.73;100.00
10618;BME280;5356;43.526;26.534;2022-12-10T09:29:04;98218.19;;;16.86;100.00
10618;BME280;5356;43.526;26.534;2022-12-10T09:31:29;98205.94;;;16.98;100.00
10618;BME280;5356;43.526;26.534;2022-12-10T09:33:55;98200.19;;;17.10;100.00
10618;BME280;5356;43.526;26.534;2022-12-10T09:36:21;98195.19;;;17.22;100.00
10618;BME280;5356;43.526;26.534;2022-12-10T09:38:48;98188.88;;;17.32;100.00
10618;BME280;5356;43.526;26.534;2022-12-10T09:41:20;98174.13;;;17.48;100.00
10618;BME280;5356;43.526;26.534;2022-12-10T09:43:56;98167.38;;;17.51;100.00
10618;BME280;5356;43.526;26.534;2022-12-10T09:46:53;98163.03;;;17.55;100.00
10618;BME280;5356;43.526;26.534;2022-12-10T09:51:50;98164.47;;;17.85;100.00
10618;BME280;5356;43.526;26.534;2022-12-10T09:54:26;98158.94;;;17.95;100.00
10618;BME280;5356;43.526;26.534;2022-12-10T09:56:54;98154.78;;;18.03;100.00
10618;BME280;5356;43.526;26.534;2022-12-10T09:59:24;98156.31;;;18.09;100.00
10618;BME280;5356;43.526;26.534;2022-12-10T10:04:34;98156.88;;;18.39;100.00
10618;BME280;5356;43.526;26.534;2022-12-10T10:06:59;98158.19;;;18.42;100.00
10618;BME280;5356;43.526;26.534;2022-12-10T10:09:26;98157.72;;;18.53;100.00
10618;BME280;5356;43.526;26.534;2022-12-10T10:11:52;98150.94;;;18.70;100.00
10618;BME280;5356;43.526;26.534;2022-12-10T10:14:35;98140.63;;;18.77;100.00
10618;BME280;5356;43.526;26.534;2022-12-10T10:17:03;98138.38;;;18.79;100.00
10618;BME280;5356;43.526;26.534;2022-12-10T10:19:34;98122.00;;;18.89;100.00
10618;BME280;5356;43.526;26.534;2022-12-10T10:22:03;98128.19;;;19.03;100.00
10618;BME280;5356;43.526;26.534;2022-12-10T10:24:39;98127.59;;;19.06;100.00
10618;BME280;5356;43.526;26.534;2022-12-10T10:29:46;98117.59;;;19.21;100.00
10618;BME280;5356;43.526;26.534;2022-12-10T10:34:42;98113.06;;;19.30;100.00
10618;BME280;5356;43.526;26.534;2022-12-10T10:37:16;98108.75;;;19.43;100.00
10618;BME280;5356;43.526;26.534;2022-12-10T10:39:47;98107.53;;;19.49;100.00
10618;BME280;5356;43.526;26.534;2022-12-10T10:44:59;98088.50;;;19.54;100.00
10618;BME280;5356;43.526;26.534;2022-12-10T10:47:32;98097.09;;;19.56;100.00
10618;BME280;5356;43.526;26.534;2022-12-10T10:49:58;98100.88;;;19.69;100.00
10618;BME280;5356;43.526;26.534;2022-12-10T10:52:35;98093.94;;;19.77;100.00
10618;BME280;5356;43.526;26.534;2022-12-10T10:55:00;98085.16;;;19.71;100.00
10618;BME280;5356;43.526;26.534;2022-12-10T10:57:34;98078.53;;;19.77;100.00
10618;BME280;5356;43.526;26.534;2022-12-10T11:00:05;98074.47;;;19.88;100.00
10618;BME280;5356;43.526;26.534;2022-12-10T11:02:41;98066.41;;;19.97;100.00
10618;BME280;5356;43.526;26.534;2022-12-10T11:05:30;98059.47;;;20.05;100.00
10618;BME280;5356;43.526;26.534;2022-12-10T11:08:04;98061.78;;;20.20;100.00
10618;BME280;5356;43.526;26.534;2022-12-10T11:10:31;98058.28;;;20.19;100.00
10618;BME280;5356;43.526;26.534;2022-12-10T11:13:06;98060.53;;;20.26;100.00
10618;BME280;5356;43.526;26.534;2022-12-10T11:15:38;98064.66;;;20.24;99.05
10618;BME280;5356;43.526;26.534;2022-12-10T11:18:40;98061.03;;;20.28;98.14
10618;BME280;5356;43.526;26.534;2022-12-10T11:32:00;98054.31;;;20.57;95.98
10618;BME280;5356;43.526;26.534;2022-12-10T11:39:52;98052.69;;;20.47;93.86
10618;BME280;5356;43.526;26.534;2022-12-10T11:50:53;98017.81;;;20.46;92.16
10618;BME280;5356;43.526;26.534;2022-12-10T12:09:57;98009.91;;;20.18;90.37
10618;BME280;5356;43.526;26.534;2022-12-10T12:12:40;98013.09;;;20.20;91.15
10618;BME280;5356;43.526;26.534;2022-12-10T12:18:03;98019.88;;;20.09;89.21
10618;BME280;5356;43.526;26.534;2022-12-10T12:20:43;98010.19;;;20.08;89.66
10618;BME280;5356;43.526;26.534;2022-12-10T12:26:07;98013.66;;;20.00;89.46
10618;BME280;5356;43.526;26.534;2022-12-10T12:28:40;98020.59;;;19.92;89.28
10618;BME280;5356;43.526;26.534;2022-12-10T12:31:11;98013.91;;;19.89;89.74
10618;BME280;5356;43.526;26.534;2022-12-10T12:33:42;98010.34;;;19.80;89.78
10618;BME280;5356;43.526;26.534;2022-12-10T12:36:16;98009.38;;;19.76;89.81
10618;BME280;5356;43.526;26.534;2022-12-10T12:39:14;98008.44;;;19.81;91.07
10618;BME280;5356;43.526;26.534;2022-12-10T12:44:24;98019.66;;;19.65;91.87
10618;BME280;5356;43.526;26.534;2022-12-10T12:46:56;98018.69;;;19.70;91.67
10618;BME280;5356;43.526;26.534;2022-12-10T12:52:07;98009.38;;;19.54;91.65
10618;BME280;5356;43.526;26.534;2022-12-10T12:54:39;98007.13;;;19.56;91.95
10618;BME280;5356;43.526;26.534;2022-12-10T12:57:10;98006.66;;;19.54;92.02
10618;BME280;5356;43.526;26.534;2022-12-10T13:02:44;97999.53;;;19.35;94.37
10618;BME280;5356;43.526;26.534;2022-12-10T13:05:18;97985.91;;;19.40;94.95
10618;BME280;5356;43.526;26.534;2022-12-10T13:10:51;98001.50;;;19.43;95.51
10618;BME280;5356;43.526;26.534;2022-12-10T13:13:34;97992.53;;;19.34;96.17
10618;BME280;5356;43.526;26.534;2022-12-10T13:24:43;97982.25;;;19.00;98.80
10618;BME280;5356;43.526;26.534;2022-12-10T13:27:19;97986.38;;;18.97;99.05
10618;BME280;5356;43.526;26.534;2022-12-10T13:30:00;97984.75;;;18.96;98.64
10618;BME280;5356;43.526;26.534;2022-12-10T13:37:34;97986.41;;;18.83;98.28
10618;BME280;5356;43.526;26.534;2022-12-10T13:48:53;97974.31;;;18.67;98.17
10618;BME280;5356;43.526;26.534;2022-12-10T13:54:30;97975.31;;;18.57;97.79
10618;BME280;5356;43.526;26.534;2022-12-10T14:07:56;97965.84;;;18.05;99.74
10618;BME280;5356;43.526;26.534;2022-12-10T14:10:30;97963.34;;;17.81;100.00
10618;BME280;5356;43.526;26.534;2022-12-10T14:12:56;97960.88;;;17.65;100.00
10618;BME280;5356;43.526;26.534;2022-12-10T14:15:24;97964.31;;;17.52;100.00
10618;BME280;5356;43.526;26.534;2022-12-10T14:17:57;97964.56;;;17.37;100.00
10618;BME280;5356;43.526;26.534;2022-12-10T14:20:24;97963.53;;;17.19;100.00
10618;BME280;5356;43.526;26.534;2022-12-10T14:22:54;97969.63;;;17.05;100.00
10618;BME280;5356;43.526;26.534;2022-12-10T14:25:43;97955.25;;;16.96;100.00
10618;BME280;5356;43.526;26.534;2022-12-10T14:28:16;97961.50;;;16.92;100.00
10618;BME280;5356;43.526;26.534;2022-12-10T14:30:44;97953.28;;;16.83;100.00
10618;BME280;5356;43.526;26.534;2022-12-10T14:33:13;97962.72;;;16.80;100.00
10618;BME280;5356;43.526;26.534;2022-12-10T14:35:40;97960.88;;;16.76;100.00
10618;BME280;5356;43.526;26.534;2022-12-10T14:38:20;97953.59;;;16.57;100.00
10618;BME280;5356;43.526;26.534;2022-12-10T14:40:47;97954.53;;;16.48;100.00
10618;BME280;5356;43.526;26.534;2022-12-10T14:43:19;97940.69;;;16.35;100.00
10618;BME280;5356;43.526;26.534;2022-12-10T14:45:54;97941.06;;;16.29;100.00
10618;BME280;5356;43.526;26.534;2022-12-10T14:48:22;97930.88;;;16.26;100.00
10618;BME280;5356;43.526;26.534;2022-12-10T14:50:48;97931.50;;;16.17;100.00
10618;BME280;5356;43.526;26.534;2022-12-10T14:53:25;97931.00;;;16.15;100.00
10618;BME280;5356;43.526;26.534;2022-12-10T14:55:55;97935.94;;;16.08;100.00
10618;BME280;5356;43.526;26.534;2022-12-10T15:00:57;97930.09;;;16.01;100.00
10618;BME280;5356;43.526;26.534;2022-12-10T15:03:32;97933.41;;;15.93;100.00
10618;BME280;5356;43.526;26.534;2022-12-10T15:06:06;97923.19;;;15.95;100.00
10618;BME280;5356;43.526;26.534;2022-12-10T15:08:32;97918.91;;;15.94;100.00
10618;BME280;5356;43.526;26.534;2022-12-10T15:11:00;97926.13;;;15.93;100.00
10618;BME280;5356;43.526;26.534;2022-12-10T15:15:52;97929.38;;;15.90;100.00